.
WxDataArchive / Data Records for 2016-02-06
2016-02-05 February 2016 2016-02-07

Data Records for Saturday, 06 February 2016

Time	Temp	Chill	HIndex	Humid	Dewpt	 Wind 	HiWind	WindDir	Rain 	Barom
-----	----	-----	------	-----	-----	------	------	-------	-----	-----
00:00	29.1	29.1	29.1	83	24.6	0	1	248	0.00	30.309 
00:05	29.0	29.0	29.0	83	24.5	0	1	248	0.00	30.309 
00:10	29.0	29.0	29.0	83	24.5	0	2	248	0.00	30.309 
00:15	28.8	28.8	28.8	83	24.3	0	1	248	0.00	30.307 
00:20	28.7	28.7	28.7	84	24.5	0	1	248	0.00	30.307 
00:25	28.7	28.7	28.7	84	24.5	0	1	248	0.00	30.307 
00:30	28.5	28.5	28.5	84	24.3	0	0	---	0.00	30.307 
00:35	28.4	28.4	28.4	84	24.2	0	0	---	0.00	30.307 
00:40	28.2	28.2	28.2	84	24.0	0	0	---	0.00	30.307 
00:45	28.1	28.1	28.1	84	23.9	0	0	---	0.00	30.306 
00:50	27.8	27.8	27.8	84	23.6	0	0	---	0.00	30.306 
00:55	27.6	27.6	27.6	84	23.4	0	0	---	0.00	30.306 
01:00	27.5	27.5	27.5	84	23.3	0	0	---	0.00	30.307 
01:05	27.3	27.3	27.3	84	23.1	0	0	---	0.00	30.307 
01:10	27.2	27.2	27.2	84	23.0	0	0	---	0.00	30.307 
01:15	27.0	27.0	27.0	84	22.8	0	0	---	0.00	30.304 
01:20	26.9	26.9	26.9	84	22.7	0	0	---	0.00	30.304 
01:25	26.6	26.6	26.6	84	22.4	0	0	---	0.00	30.304 
01:30	26.4	26.4	26.4	85	22.5	0	0	---	0.00	30.299 
01:35	26.4	26.4	26.4	85	22.5	0	0	---	0.00	30.299 
01:40	26.4	26.4	26.4	85	22.5	0	0	---	0.00	30.299 
01:45	26.4	26.4	26.4	85	22.5	0	0	---	0.00	30.302 
01:50	26.4	26.4	26.4	86	22.8	0	0	---	0.00	30.302 
01:55	26.4	26.4	26.4	86	22.8	0	0	---	0.00	30.302 
02:00	26.4	26.4	26.4	86	22.8	0	0	---	0.00	30.302 
02:05	26.4	26.4	26.4	86	22.8	0	1	248	0.00	30.302 
02:10	26.6	26.6	26.6	86	23.0	0	0	---	0.00	30.302 
02:15	26.6	26.6	26.6	85	22.7	0	0	---	0.00	30.303 
02:20	26.4	26.4	26.4	85	22.5	0	0	---	0.00	30.303 
02:25	26.3	26.3	26.3	85	22.4	0	0	---	0.00	30.303 
02:30	26.0	26.0	26.0	85	22.1	0	0	---	0.00	30.307 
02:35	25.8	25.8	25.8	85	21.9	0	0	---	0.00	30.307 
02:40	25.7	25.7	25.7	85	21.8	0	0	---	0.00	30.307 
02:45	25.6	25.6	25.6	85	21.7	0	0	---	0.00	30.308 
02:50	25.4	25.4	25.4	85	21.5	0	0	---	0.00	30.308 
02:55	25.1	25.1	25.1	85	21.2	0	0	---	0.00	30.308 
03:00	25.1	25.1	25.1	85	21.2	0	0	---	0.00	30.311 
03:05	25.0	25.0	25.0	85	21.1	0	0	---	0.00	30.311 
03:10	24.8	24.8	24.8	85	20.9	0	0	---	0.00	30.311 
03:15	24.7	24.7	24.7	85	20.8	0	0	---	0.00	30.315 
03:20	24.5	24.5	24.5	86	20.9	0	0	---	0.00	30.315 
03:25	24.7	24.7	24.7	86	21.1	0	0	---	0.00	30.315 
03:30	24.7	24.7	24.7	86	21.1	0	0	---	0.00	30.312 
03:35	24.5	24.5	24.5	86	20.9	0	0	---	0.00	30.312 
03:40	24.2	24.2	24.2	86	20.6	0	0	---	0.00	30.312 
03:45	24.1	24.1	24.1	86	20.5	0	0	---	0.00	30.311 
03:50	23.8	23.8	23.8	86	20.2	0	0	---	0.00	30.311 
03:55	23.8	23.8	23.8	87	20.5	0	0	---	0.00	30.311 
04:00	23.6	23.6	23.6	87	20.3	0	0	---	0.00	30.312 
04:05	23.5	23.5	23.5	87	20.2	0	0	---	0.00	30.312 
04:10	23.3	23.3	23.3	87	20.0	0	0	---	0.00	30.312 
04:15	23.2	23.2	23.2	87	19.9	0	0	---	0.00	30.307 
04:20	23.0	23.0	23.0	87	19.7	0	0	---	0.00	30.307 
04:25	23.0	23.0	23.0	87	19.7	0	0	---	0.00	30.307 
04:30	22.9	22.9	22.9	87	19.6	0	0	---	0.00	30.309 
04:35	22.9	22.9	22.9	87	19.6	0	0	---	0.00	30.309 
04:40	22.9	22.9	22.9	88	19.9	0	0	---	0.00	30.309 
04:45	22.9	22.9	22.9	88	19.9	0	0	---	0.00	30.315 
04:50	22.9	22.9	22.9	88	19.9	0	0	---	0.00	30.315 
04:55	22.7	22.7	22.7	88	19.7	0	0	---	0.00	30.315 
05:00	22.5	22.5	22.5	88	19.5	0	0	---	0.00	30.318 
05:05	22.4	22.4	22.4	88	19.4	0	0	---	0.00	30.318 
05:10	22.2	22.2	22.2	88	19.2	0	0	---	0.00	30.318 
05:15	22.1	22.1	22.1	88	19.1	0	0	---	0.00	30.317 
05:20	21.9	21.9	21.9	88	18.9	0	0	---	0.00	30.317 
05:25	21.8	21.8	21.8	88	18.8	0	0	---	0.00	30.317 
05:30	21.8	21.8	21.8	88	18.8	0	0	---	0.00	30.316 
05:35	21.9	21.9	21.9	89	19.2	0	0	---	0.00	30.316 
05:40	21.9	21.9	21.9	88	18.9	0	0	---	0.00	30.316 
05:45	21.9	21.9	21.9	89	19.2	0	0	---	0.00	30.309 
05:50	21.8	21.8	21.8	89	19.1	0	0	---	0.00	30.309 
05:55	21.8	21.8	21.8	89	19.1	0	0	---	0.00	30.309 
06:00	21.8	21.8	21.8	89	19.1	0	0	---	0.00	30.308 
06:05	21.6	21.6	21.6	89	18.9	0	0	---	0.00	30.308 
06:10	21.6	21.6	21.6	89	18.9	0	0	---	0.00	30.308 
06:15	21.4	21.4	21.4	89	18.7	0	0	---	0.00	30.311 
06:20	21.3	21.3	21.3	89	18.6	0	0	---	0.00	30.311 
06:25	21.1	21.1	21.1	89	18.4	0	0	---	0.00	30.311 
06:30	21.0	21.0	21.0	89	18.3	0	0	---	0.00	30.309 
06:35	20.8	20.8	20.8	89	18.1	0	0	---	0.00	30.309 
06:40	20.8	20.8	20.8	89	18.1	0	0	---	0.00	30.309 
06:45	20.8	20.8	20.8	89	18.1	0	0	---	0.00	30.319 
06:50	20.8	20.8	20.8	89	18.1	0	0	---	0.00	30.319 
06:55	20.6	20.6	20.6	89	17.9	0	0	---	0.00	30.319 
07:00	20.5	20.5	20.5	89	17.8	0	0	---	0.00	30.314 
07:05	20.5	20.5	20.5	89	17.8	0	0	---	0.00	30.314 
07:10	20.3	20.3	20.3	89	17.6	0	0	---	0.00	30.314 
07:15	20.3	20.3	20.3	89	17.6	0	0	---	0.00	30.318 
07:20	20.3	20.3	20.3	89	17.6	0	0	---	0.00	30.318 
07:25	20.2	20.2	20.2	89	17.5	0	0	---	0.00	30.318 
07:30	20.0	20.0	20.0	89	17.3	0	0	---	0.00	30.321 
07:35	20.0	20.0	20.0	89	17.3	0	0	---	0.00	30.321 
07:40	19.9	19.9	19.9	89	17.2	0	0	---	0.00	30.321 
07:45	19.7	19.7	19.7	89	17.0	0	0	---	0.00	30.327 
07:50	19.7	19.7	19.7	89	17.0	0	0	---	0.00	30.327 
07:55	19.5	19.5	19.5	89	16.8	0	0	---	0.00	30.327 
08:00	19.5	19.5	19.5	89	16.8	0	0	---	0.00	30.338 
08:05	19.5	19.5	19.5	89	16.8	0	0	---	0.00	30.338 
08:10	19.5	19.5	19.5	89	16.8	0	0	---	0.00	30.338 
08:15	19.5	19.5	19.5	89	16.8	0	0	---	0.00	30.341 
08:20	19.5	19.5	19.5	89	16.8	0	0	---	0.00	30.341 
08:25	19.5	19.5	19.5	89	16.8	0	0	---	0.00	30.341 
08:30	19.7	19.7	19.7	90	17.3	0	0	---	0.00	30.344 
08:35	20.2	20.2	20.2	90	17.7	0	0	---	0.00	30.344 
08:40	20.6	20.6	20.6	91	18.4	0	0	---	0.00	30.344 
08:45	21.3	21.3	21.3	91	19.1	0	0	---	0.00	30.342 
08:50	21.9	21.9	21.9	91	19.7	0	0	---	0.00	30.342 
08:55	22.9	22.9	22.9	91	20.7	0	0	---	0.00	30.342 
09:00	23.6	23.6	23.6	91	21.4	0	0	---	0.00	30.336 
09:05	24.4	24.4	24.4	92	22.4	0	0	---	0.00	30.336 
09:10	25.1	25.1	25.1	92	23.1	0	0	---	0.00	30.336 
09:15	25.4	25.4	25.4	91	23.1	0	1	248	0.00	30.332 
09:20	25.7	25.7	25.7	91	23.4	0	1	248	0.00	30.332 
09:25	26.0	26.0	26.0	91	23.7	0	1	248	0.00	30.332 
09:30	26.3	26.3	26.3	91	24.0	0	1	248	0.00	30.318 
09:35	26.6	26.6	26.6	91	24.3	0	1	248	0.00	30.318 
09:40	27.2	27.2	27.2	91	24.9	0	1	248	0.00	30.318 
09:45	27.5	27.5	27.5	90	25.0	0	1	248	0.00	30.320 
09:50	27.8	27.8	27.8	90	25.3	0	1	248	0.00	30.320 
09:55	28.2	28.2	28.2	89	25.4	0	2	248	0.00	30.320 
10:00	28.4	28.4	28.4	88	25.3	0	1	248	0.00	30.316 
10:05	28.4	28.4	28.4	87	25.0	0	2	248	0.00	30.316 
10:10	28.7	28.7	28.7	86	25.1	0	1	248	0.00	30.316 
10:15	28.8	28.8	28.8	84	24.6	0	2	248	0.00	30.313 
10:20	29.0	29.0	29.0	83	24.5	0	3	248	0.00	30.313 
10:25	29.1	29.1	29.1	82	24.3	0	2	248	0.00	30.313 
10:30	29.5	29.5	29.5	81	24.4	0	2	248	0.00	30.312 
10:35	29.8	29.8	29.8	80	24.4	0	2	248	0.00	30.312 
10:40	29.8	29.8	29.8	78	23.8	1	3	248	0.00	30.312 
10:45	29.8	29.8	29.8	77	23.5	1	3	248	0.00	30.310 
10:50	30.0	30.0	30.0	77	23.7	0	2	248	0.00	30.310 
10:55	30.4	30.4	30.4	77	24.1	0	2	248	0.00	30.310 
11:00	30.9	30.9	30.9	76	24.2	0	3	338	0.00	30.306 
11:05	31.3	31.3	31.3	74	24.0	1	3	292	0.00	30.306 
11:10	31.3	31.3	31.3	73	23.7	1	3	248	0.00	30.306 
11:15	31.3	31.3	31.3	72	23.3	1	4	248	0.00	30.308 
11:20	31.3	31.3	31.3	72	23.3	1	2	248	0.00	30.308 
11:25	31.5	31.5	31.5	71	23.2	1	6	270	0.00	30.308 
11:30	31.8	31.8	31.8	71	23.5	1	3	270	0.00	30.311 
11:35	31.8	31.8	31.8	70	23.2	1	3	270	0.00	30.311 
11:40	31.9	31.9	31.9	70	23.2	1	4	248	0.00	30.311 
11:45	32.2	32.2	32.2	69	23.2	0	3	248	0.00	30.302 
11:50	32.5	32.5	32.5	69	23.5	0	1	248	0.00	30.302 
11:55	32.8	32.8	32.8	68	23.4	1	5	248	0.00	30.302 
12:00	32.8	32.8	32.8	68	23.4	0	2	248	0.00	30.294 
12:05	32.9	32.9	32.9	67	23.2	2	4	248	0.00	30.294 
12:10	33.1	33.1	33.1	67	23.4	1	5	292	0.00	30.294 
12:15	33.2	33.2	33.2	66	23.1	0	3	270	0.00	30.285 
12:20	33.5	33.5	33.5	66	23.4	0	3	270	0.00	30.285 
12:25	34.0	34.0	34.0	65	23.5	1	3	270	0.00	30.285 
12:30	34.1	34.1	34.1	65	23.6	1	4	248	0.00	30.272 
12:35	34.3	34.3	34.3	62	22.7	1	4	248	0.00	30.272 
12:40	34.4	34.4	34.4	62	22.7	0	2	248	0.00	30.272 
12:45	34.7	34.7	34.7	63	23.4	0	3	248	0.00	30.263 
12:50	34.9	34.9	34.9	62	23.2	0	3	248	0.00	30.263 
12:55	35.0	35.0	35.0	60	22.5	0	2	248	0.00	30.263 
13:00	35.3	35.3	35.3	60	22.8	0	2	248	0.00	30.261 
13:05	35.6	35.6	35.6	59	22.7	0	3	248	0.00	30.261 
13:10	35.9	35.9	35.9	58	22.6	0	4	248	0.00	30.261 
13:15	35.9	35.9	35.9	57	22.2	1	3	248	0.00	30.251 
13:20	36.2	36.2	36.2	56	22.0	0	1	248	0.00	30.251 
13:25	36.5	36.5	36.5	54	21.5	1	3	248	0.00	30.251 
13:30	36.5	36.5	36.5	53	21.0	1	4	248	0.00	30.246 
13:35	36.5	36.5	36.5	53	21.0	1	5	248	0.00	30.246 
13:40	36.9	36.9	36.9	53	21.4	0	2	248	0.00	30.246 
13:45	37.2	37.2	37.2	50	20.3	0	3	248	0.00	30.232 
13:50	37.6	37.6	37.6	50	20.7	0	2	248	0.00	30.232 
13:55	37.9	37.9	37.9	50	20.9	0	3	248	0.00	30.232 
14:00	38.2	38.2	38.2	50	21.2	0	3	248	0.00	30.226 
14:05	38.2	38.2	38.2	43	17.7	2	4	248	0.00	30.226 
14:10	38.2	38.2	38.2	44	18.2	1	3	270	0.00	30.226 
14:15	38.2	38.2	38.2	46	19.3	1	4	248	0.00	30.218 
14:20	38.2	38.2	38.2	48	20.3	0	2	270	0.00	30.218 
14:25	38.3	38.3	38.3	46	19.4	1	3	270	0.00	30.218 
14:30	38.6	38.6	38.6	46	19.6	1	3	270	0.00	30.213 
14:35	38.8	38.8	38.8	46	19.8	0	2	270	0.00	30.213 
14:40	39.1	39.1	39.1	46	20.1	1	3	270	0.00	30.213 
14:45	39.1	39.1	39.1	43	18.5	1	3	270	0.00	30.207 
14:50	39.2	39.2	39.2	42	18.1	1	3	270	0.00	30.207 
14:55	39.2	39.2	39.2	42	18.1	1	4	270	0.00	30.207 
15:00	39.3	39.3	39.3	43	18.7	1	4	248	0.00	30.205 
15:05	39.2	39.2	39.2	43	18.6	1	4	248	0.00	30.205 
15:10	39.2	39.2	39.2	44	19.1	0	2	248	0.00	30.205 
15:15	39.3	39.3	39.3	45	19.8	0	2	248	0.00	30.203 
15:20	39.3	39.3	39.3	45	19.8	0	2	248	0.00	30.203 
15:25	39.5	39.5	39.5	45	19.9	1	4	248	0.00	30.203 
15:30	39.6	39.6	39.6	46	20.5	0	2	248	0.00	30.199 
15:35	39.8	39.8	39.8	46	20.7	1	4	248	0.00	30.199 
15:40	39.9	39.9	39.9	46	20.8	1	3	248	0.00	30.199 
15:45	39.9	39.9	39.9	47	21.3	1	3	248	0.00	30.198 
15:50	39.9	39.9	39.9	48	21.8	0	3	248	0.00	30.198 
15:55	39.9	39.9	39.9	48	21.8	1	3	248	0.00	30.198 
16:00	39.8	39.8	39.8	47	21.2	0	2	248	0.00	30.197 
16:05	39.8	39.8	39.8	47	21.2	1	3	248	0.00	30.197 
16:10	39.6	39.6	39.6	47	21.0	1	3	248	0.00	30.197 
16:15	39.8	39.8	39.8	48	21.7	0	3	248	0.00	30.200 
16:20	39.8	39.8	39.8	47	21.2	0	1	248	0.00	30.200 
16:25	39.8	39.8	39.8	48	21.7	1	3	248	0.00	30.200 
16:30	39.8	39.8	39.8	49	22.2	0	2	248	0.00	30.202 
16:35	39.5	39.5	39.5	48	21.5	0	3	248	0.00	30.202 
16:40	39.5	39.5	39.5	48	21.5	0	3	248	0.00	30.202 
16:45	39.5	39.5	39.5	48	21.5	0	3	248	0.00	30.206 
16:50	39.5	39.5	39.5	49	21.9	0	4	248	0.00	30.206 
16:55	39.5	39.5	39.5	49	21.9	0	3	248	0.00	30.206 
17:00	39.3	39.3	39.3	49	21.8	1	3	248	0.00	30.203 
17:05	39.2	39.2	39.2	49	21.7	1	5	248	0.00	30.203 
17:10	39.2	39.2	39.2	50	22.1	1	4	248	0.00	30.203 
17:15	39.1	39.1	39.1	50	22.0	0	2	248	0.00	30.213 
17:20	38.9	38.9	38.9	51	22.3	0	2	248	0.00	30.213 
17:25	38.9	38.9	38.9	51	22.3	1	3	202	0.00	30.213 
17:30	38.8	38.8	38.8	52	22.7	1	3	248	0.00	30.214 
17:35	38.5	38.5	38.5	52	22.4	0	2	248	0.00	30.214 
17:40	38.3	38.3	38.3	53	22.7	0	2	248	0.00	30.214 
17:45	38.2	38.2	38.2	54	23.0	0	1	248	0.00	30.209 
17:50	38.0	38.0	38.0	54	22.9	0	2	248	0.00	30.209 
17:55	37.8	37.8	37.8	55	23.1	0	3	248	0.00	30.209 
18:00	37.6	37.6	37.6	56	23.3	0	1	135	0.00	30.201 
18:05	37.3	37.3	37.3	56	23.1	0	2	135	0.00	30.201 
18:10	37.2	37.2	37.2	57	23.4	0	1	158	0.00	30.201 
18:15	36.9	36.9	36.9	58	23.5	0	1	158	0.00	30.203 
18:20	36.8	36.8	36.8	58	23.4	0	1	158	0.00	30.203 
18:25	36.6	36.6	36.6	59	23.6	0	1	158	0.00	30.203 
18:30	36.3	36.3	36.3	60	23.8	0	0	---	0.00	30.204 
18:35	36.0	36.0	36.0	60	23.5	0	0	---	0.00	30.204 
18:40	35.8	35.8	35.8	61	23.7	0	0	---	0.00	30.204 
18:45	35.5	35.5	35.5	61	23.4	0	0	---	0.00	30.208 
18:50	35.0	35.0	35.0	62	23.3	0	0	---	0.00	30.208 
18:55	34.7	34.7	34.7	62	23.0	0	0	---	0.00	30.208 
19:00	34.3	34.3	34.3	64	23.4	0	0	---	0.00	30.214 
19:05	34.0	34.0	34.0	64	23.1	0	0	---	0.00	30.214 
19:10	33.7	33.7	33.7	64	22.8	0	0	---	0.00	30.214 
19:15	33.4	33.4	33.4	65	22.9	0	0	---	0.00	30.214 
19:20	33.1	33.1	33.1	66	23.0	0	0	---	0.00	30.214 
19:25	32.8	32.8	32.8	66	22.7	0	0	---	0.00	30.214 
19:30	32.5	32.5	32.5	67	22.8	0	0	---	0.00	30.213 
19:35	32.2	32.2	32.2	68	22.8	0	0	---	0.00	30.213 
19:40	32.1	32.1	32.1	69	23.1	0	0	---	0.00	30.213 
19:45	31.8	31.8	31.8	70	23.2	0	0	---	0.00	30.210 
19:50	31.6	31.6	31.6	71	23.3	0	0	---	0.00	30.210 
19:55	31.5	31.5	31.5	72	23.5	0	0	---	0.00	30.210 
20:00	31.3	31.3	31.3	73	23.7	0	0	---	0.00	30.210 
20:05	31.2	31.2	31.2	73	23.6	0	0	---	0.00	30.210 
20:10	31.0	31.0	31.0	74	23.7	0	0	---	0.00	30.210 
20:15	30.9	30.9	30.9	75	23.9	0	0	---	0.00	30.205 
20:20	30.9	30.9	30.9	75	23.9	0	0	---	0.00	30.205 
20:25	30.9	30.9	30.9	75	23.9	0	0	---	0.00	30.205 
20:30	30.7	30.7	30.7	75	23.7	0	0	---	0.00	30.204 
20:35	30.6	30.6	30.6	76	24.0	0	0	---	0.00	30.204 
20:40	30.4	30.4	30.4	77	24.1	0	0	---	0.00	30.204 
20:45	30.3	30.3	30.3	77	24.0	0	0	---	0.00	30.198 
20:50	30.1	30.1	30.1	78	24.1	0	0	---	0.00	30.198 
20:55	30.0	30.0	30.0	78	24.0	0	0	---	0.00	30.198 
21:00	29.8	29.8	29.8	78	23.8	0	0	---	0.00	30.197 
21:05	29.7	29.7	29.7	79	24.0	0	0	---	0.00	30.197 
21:10	29.5	29.5	29.5	79	23.8	0	0	---	0.00	30.197 
21:15	29.3	29.3	29.3	79	23.6	0	0	---	0.00	30.195 
21:20	29.1	29.1	29.1	79	23.4	0	0	---	0.00	30.195 
21:25	28.8	28.8	28.8	79	23.1	0	0	---	0.00	30.195 
21:30	28.7	28.7	28.7	80	23.3	0	0	---	0.00	30.190 
21:35	28.4	28.4	28.4	80	23.0	0	0	---	0.00	30.190 
21:40	28.1	28.1	28.1	80	22.7	0	0	---	0.00	30.190 
21:45	27.8	27.8	27.8	81	22.7	0	0	---	0.00	30.187 
21:50	27.6	27.6	27.6	81	22.5	0	0	---	0.00	30.187 
21:55	27.5	27.5	27.5	82	22.7	0	0	---	0.00	30.187 
22:00	27.3	27.3	27.3	82	22.5	0	0	---	0.00	30.183 
22:05	27.3	27.3	27.3	82	22.5	0	0	---	0.00	30.183 
22:10	27.2	27.2	27.2	83	22.7	0	0	---	0.00	30.183 
22:15	27.0	27.0	27.0	83	22.5	0	0	---	0.00	30.173 
22:20	26.9	26.9	26.9	83	22.4	0	0	---	0.00	30.173 
22:25	26.7	26.7	26.7	84	22.5	0	0	---	0.00	30.173 
22:30	26.6	26.6	26.6	84	22.4	0	0	---	0.00	30.172 
22:35	26.6	26.6	26.6	84	22.4	0	0	---	0.00	30.172 
22:40	26.4	26.4	26.4	84	22.2	0	0	---	0.00	30.172 
22:45	26.3	26.3	26.3	84	22.1	0	0	---	0.00	30.173 
22:50	26.1	26.1	26.1	84	21.9	0	0	---	0.00	30.173 
22:55	26.1	26.1	26.1	85	22.2	0	0	---	0.00	30.173 
23:00	26.0	26.0	26.0	85	22.1	0	0	---	0.00	30.166 
23:05	26.0	26.0	26.0	85	22.1	0	0	---	0.00	30.166 
23:10	26.0	26.0	26.0	85	22.1	0	0	---	0.00	30.166 
23:15	26.0	26.0	26.0	86	22.4	0	0	---	0.00	30.157 
23:20	26.0	26.0	26.0	86	22.4	0	0	---	0.00	30.157 
23:25	26.0	26.0	26.0	86	22.4	0	0	---	0.00	30.157 
23:30	25.8	25.8	25.8	86	22.2	0	0	---	0.00	30.153 
23:35	25.8	25.8	25.8	86	22.2	0	0	---	0.00	30.153 
23:40	25.8	25.8	25.8	87	22.5	0	0	---	0.00	30.153 
23:45	25.8	25.8	25.8	86	22.2	0	0	---	0.00	30.145 
23:50	25.8	25.8	25.8	87	22.5	0	0	---	0.00	30.145 
23:55	25.7	25.7	25.7	87	22.4	0	0	---	0.00	30.145 

CoCoRaHS
IN-AL-39
A2 Web Hosting
Creative Commons License
GoDaddy
search engine by freefind advanced

loaded 2018-11-18 11:24:50 • last modified 2010-11-18 10:43:29
Privacy PolicyDisclaimer
• wx.awcolley.com is powered by PmWiki v.2002016 •
• all content (unless otherwise noted) © 2018 A W Colley